Time;durP1;ratioP1;P1;durP2;ratioP2;P2;SDS_P1;SDS_P2;PMS_P1;PMS_P2;Temp;Humidity;BMP_temperature;BMP_pressure;BME280_temperature;BME280_humidity;BME280_pressure;Samples;Min_cycle;Max_cycle;Signal;HPM_P1;HPM_P2
2021/08/02 00:02:07;;;;;;;9.30;8.05;;;15.20;99.90;;;;;;5001989;28;20710;-70
2021/08/02 00:04:43;;;;;;;9.77;8.43;;;15.20;99.90;;;;;;5005616;28;20241;-70
2021/08/02 00:07:14;;;;;;;10.98;7.68;;;15.20;99.90;;;;;;5014318;28;20200;-70
2021/08/02 00:09:44;;;;;;;11.05;8.13;;;15.20;99.90;;;;;;5017107;28;20651;-68
2021/08/02 00:12:16;;;;;;;11.27;8.50;;;15.20;99.90;;;;;;5020297;28;20201;-69
2021/08/02 00:14:46;;;;;;;17.77;8.60;;;15.10;99.90;;;;;;5019722;28;20209;-70
2021/08/02 00:17:13;;;;;;;10.00;7.45;;;15.20;99.90;;;;;;5010211;28;20518;-68
2021/08/02 00:19:40;;;;;;;7.63;6.88;;;15.10;99.90;;;;;;5046929;28;20197;-66
2021/08/02 00:22:07;;;;;;;8.25;7.50;;;15.10;99.90;;;;;;5013203;28;20240;-68
2021/08/02 00:24:34;;;;;;;11.73;7.90;;;15.00;99.90;;;;;;5015014;28;20595;-68
2021/08/02 00:27:02;;;;;;;8.95;7.35;;;15.10;99.90;;;;;;5004268;28;20428;-69
2021/08/02 00:29:31;;;;;;;10.77;7.97;;;15.20;99.90;;;;;;5031965;28;20200;-68
2021/08/02 00:32:01;;;;;;;9.00;8.10;;;15.10;99.90;;;;;;5019675;28;20201;-69
2021/08/02 00:34:28;;;;;;;11.77;7.63;;;15.10;99.90;;;;;;5019135;28;20204;-68
2021/08/02 00:37:02;;;;;;;9.02;8.23;;;15.20;99.90;;;;;;5021574;28;20384;-68
2021/08/02 00:39:56;;;;;;;10.93;7.93;;;15.10;99.90;;;;;;5026236;28;20219;-68
2021/08/02 00:42:42;;;;;;;11.65;7.43;;;15.10;99.90;;;;;;5024880;28;20233;-69
2021/08/02 00:45:33;;;;;;;8.48;7.22;;;15.20;99.90;;;;;;5028332;28;20228;-68
2021/08/02 00:48:07;;;;;;;7.15;6.47;;;15.30;99.90;;;;;;5019423;28;20745;-68
2021/08/02 00:50:41;;;;;;;8.13;7.15;;;15.30;99.90;;;;;;5022471;28;20203;-68
2021/08/02 00:53:14;;;;;;;7.90;7.10;;;15.20;99.90;;;;;;5027086;28;20201;-67
2021/08/02 00:55:51;;;;;;;10.95;7.82;;;15.20;99.90;;;;;;5019554;28;20491;-69
2021/08/02 00:58:20;;;;;;;17.45;7.63;;;15.20;99.90;;;;;;5019175;28;20495;-68
2021/08/02 01:00:48;;;;;;;8.15;7.35;;;15.00;99.90;;;;;;5004820;28;20376;-69
2021/08/02 01:03:16;;;;;;;10.05;8.32;;;14.90;99.90;;;;;;5021000;28;20271;-69
2021/08/02 01:05:51;;;;;;;8.63;7.40;;;14.90;99.90;;;;;;5012469;28;20212;-68
2021/08/02 01:08:23;;;;;;;7.85;7.15;;;14.90;99.90;;;;;;5027645;28;20200;-69
2021/08/02 01:11:11;;;;;;;7.72;7.00;;;14.90;99.90;;;;;;5008922;28;20255;-67
2021/08/02 01:13:41;;;;;;;8.65;7.70;;;15.10;99.90;;;;;;4998277;28;20294;-68
2021/08/02 01:16:10;;;;;;;8.20;7.38;;;15.10;99.90;;;;;;4997685;28;20252;-67
2021/08/02 01:18:39;;;;;;;8.13;7.35;;;15.10;99.90;;;;;;5011287;28;20214;-68
2021/08/02 01:21:08;;;;;;;11.48;7.70;;;15.00;99.90;;;;;;4980165;28;20207;-67
2021/08/02 01:23:37;;;;;;;7.30;6.60;;;15.20;99.90;;;;;;4979871;28;20222;-67
2021/08/02 01:26:04;;;;;;;7.32;6.35;;;15.20;99.90;;;;;;4993178;28;20240;-68
2021/08/02 01:28:31;;;;;;;9.77;7.22;;;15.30;99.90;;;;;;4999024;28;20202;-68
2021/08/02 01:31:00;;;;;;;8.13;7.30;;;15.20;99.90;;;;;;4999689;28;20385;-67
2021/08/02 01:33:32;;;;;;;10.45;7.35;;;15.10;99.90;;;;;;4994228;28;20206;-69
2021/08/02 01:36:03;;;;;;;10.93;7.03;;;15.10;99.90;;;;;;4980175;28;20206;-67
2021/08/02 01:38:32;;;;;;;9.13;7.30;;;15.10;99.90;;;;;;4995786;28;20204;-68
2021/08/02 01:41:00;;;;;;;6.72;6.10;;;15.10;99.90;;;;;;4999203;28;20249;-67
2021/08/02 01:43:28;;;;;;;8.70;6.70;;;15.20;99.90;;;;;;4995656;28;20206;-67
2021/08/02 01:45:57;;;;;;;8.43;7.60;;;15.20;99.90;;;;;;4987684;28;20304;-68
2021/08/02 01:48:52;;;;;;;7.75;7.05;;;15.30;99.90;;;;;;4998761;28;20209;-66
2021/08/02 01:51:29;;;;;;;8.70;7.40;;;15.30;99.90;;;;;;4998833;28;20700;-67
2021/08/02 01:54:23;;;;;;;11.25;7.20;;;15.30;99.90;;;;;;4993770;28;20253;-67
2021/08/02 01:56:57;;;;;;;8.55;7.85;;;15.30;99.90;;;;;;4980575;28;20206;-67
2021/08/02 01:59:35;;;;;;;11.43;8.00;;;15.30;99.90;;;;;;4998714;28;20202;-67
2021/08/02 02:02:10;;;;;;;8.93;7.50;;;15.20;99.90;;;;;;5011358;28;20205;-69
2021/08/02 02:04:48;;;;;;;9.13;7.07;;;15.10;99.90;;;;;;4998277;28;20535;-69
2021/08/02 02:07:16;;;;;;;8.45;6.70;;;15.30;99.90;;;;;;4984819;28;20264;-68
2021/08/02 02:09:45;;;;;;;8.45;7.65;;;14.80;99.90;;;;;;4992880;28;20552;-68
2021/08/02 02:12:14;;;;;;;7.45;6.75;;;14.80;99.90;;;;;;4993765;28;20202;-68
2021/08/02 02:14:42;;;;;;;11.07;7.80;;;14.80;99.90;;;;;;5008569;28;20205;-69
2021/08/02 02:17:10;;;;;;;8.10;7.30;;;14.80;99.90;;;;;;4989022;28;20357;-67
2021/08/02 02:19:39;;;;;;;12.48;7.15;;;14.80;99.90;;;;;;4978717;28;20221;-67
2021/08/02 02:22:08;;;;;;;7.20;6.60;;;14.80;99.90;;;;;;4978973;28;20277;-66
2021/08/02 02:24:37;;;;;;;8.00;7.20;;;14.90;99.90;;;;;;4979579;28;20238;-68
2021/08/02 02:27:06;;;;;;;8.05;6.95;;;14.90;99.90;;;;;;4987925;28;20202;-68
2021/08/02 02:29:34;;;;;;;11.93;7.82;;;15.00;99.90;;;;;;5000858;28;20197;-68
2021/08/02 02:32:04;;;;;;;12.07;7.63;;;15.00;99.90;;;;;;4998121;28;20317;-68
2021/08/02 02:34:34;;;;;;;7.03;6.18;;;15.00;99.90;;;;;;4997767;28;20205;-68
2021/08/02 02:37:03;;;;;;;8.05;7.32;;;15.00;99.90;;;;;;5000850;28;20252;-69
2021/08/02 02:39:30;;;;;;;9.50;6.20;;;15.10;99.90;;;;;;4998206;28;20240;-68
2021/08/02 02:42:00;;;;;;;7.15;6.55;;;15.00;99.90;;;;;;4994725;28;20198;-69
2021/08/02 02:44:28;;;;;;;7.82;7.15;;;14.80;99.90;;;;;;4997832;28;20287;-70
2021/08/02 02:46:56;;;;;;;9.48;8.00;;;14.90;99.90;;;;;;5000317;28;20198;-67
2021/08/02 02:49:25;;;;;;;8.68;7.88;;;15.00;99.90;;;;;;4987920;28;20210;-69
2021/08/02 02:51:53;;;;;;;7.10;6.40;;;15.00;99.90;;;;;;4989646;28;20224;-68
2021/08/02 02:54:22;;;;;;;9.32;8.15;;;15.00;99.90;;;;;;4995612;28;20205;-67
2021/08/02 02:56:53;;;;;;;7.90;6.43;;;15.00;99.90;;;;;;4999531;28;20197;-68
2021/08/02 02:59:20;;;;;;;9.68;7.85;;;15.00;99.90;;;;;;4990865;28;20249;-68
2021/08/02 03:01:51;;;;;;;9.93;8.55;;;15.10;99.90;;;;;;4984629;28;20200;-67
2021/08/02 03:04:25;;;;;;;7.55;6.85;;;15.10;99.90;;;;;;4990276;28;20821;-67
2021/08/02 03:06:55;;;;;;;11.88;7.60;;;15.00;99.90;;;;;;4984034;28;20205;-67
2021/08/02 03:09:24;;;;;;;8.98;8.07;;;15.00;99.90;;;;;;4997022;28;20250;-66
2021/08/02 03:11:51;;;;;;;12.00;9.85;;;15.00;99.90;;;;;;4992387;28;20233;-68
2021/08/02 03:14:19;;;;;;;11.50;9.18;;;15.00;99.90;;;;;;4992347;28;20261;-68
2021/08/02 03:16:46;;;;;;;10.13;8.85;;;15.00;99.90;;;;;;4997732;28;20550;-67
2021/08/02 03:19:13;;;;;;;14.77;8.77;;;15.00;99.90;;;;;;4984063;28;20553;-67
2021/08/02 03:21:40;;;;;;;10.50;8.15;;;15.60;99.90;;;;;;4978048;28;20225;-66
2021/08/02 03:24:34;;;;;;;9.85;8.82;;;15.00;99.90;;;;;;4993047;28;20225;-69
2021/08/02 03:27:10;;;;;;;16.88;7.75;;;14.90;99.90;;;;;;4988406;28;20194;-65
2021/08/02 03:29:42;;;;;;;10.40;9.30;;;14.80;99.90;;;;;;4996887;28;20545;-67
2021/08/02 03:32:12;;;;;;;10.75;8.35;;;14.90;99.90;;;;;;4988876;28;20202;-66
2021/08/02 03:34:40;;;;;;;8.52;7.60;;;14.90;99.90;;;;;;5011952;28;20240;-67
2021/08/02 03:37:12;;;;;;;13.55;8.45;;;15.00;99.90;;;;;;4990202;28;20209;-66
2021/08/02 03:39:40;;;;;;;8.82;7.65;;;14.90;99.90;;;;;;4988469;28;20642;-66
2021/08/02 03:42:09;;;;;;;10.05;7.50;;;15.00;99.90;;;;;;4998455;28;20216;-69
2021/08/02 03:44:36;;;;;;;10.00;8.07;;;15.00;99.90;;;;;;4993583;28;20226;-68
2021/08/02 03:47:04;;;;;;;9.15;8.25;;;15.00;99.90;;;;;;4996153;28;20206;-68
2021/08/02 03:49:32;;;;;;;8.45;7.65;;;15.00;99.90;;;;;;4997125;28;20256;-68
2021/08/02 03:52:01;;;;;;;8.60;7.80;;;15.10;99.90;;;;;;4997310;28;20198;-66
2021/08/02 03:54:30;;;;;;;8.65;7.75;;;15.00;99.90;;;;;;5006821;28;20260;-69
2021/08/02 03:57:00;;;;;;;8.07;7.35;;;15.00;99.90;;;;;;5012052;28;20202;-67
2021/08/02 03:59:27;;;;;;;9.73;8.85;;;15.10;99.90;;;;;;5003552;28;20196;-67
2021/08/02 04:01:54;;;;;;;11.73;8.35;;;15.00;99.90;;;;;;5010912;28;20209;-67
2021/08/02 04:04:21;;;;;;;11.38;7.88;;;14.90;99.90;;;;;;4996267;28;20245;-68
2021/08/02 04:06:48;;;;;;;11.70;9.77;;;14.90;99.90;;;;;;5011836;28;20547;-67
2021/08/02 04:09:16;;;;;;;9.25;8.38;;;14.90;99.90;;;;;;4996830;28;20304;-66
2021/08/02 04:11:45;;;;;;;10.43;8.20;;;15.00;99.90;;;;;;5000389;28;20198;-65
2021/08/02 04:14:13;;;;;;;9.15;7.18;;;15.10;99.90;;;;;;5000229;28;20412;-66
2021/08/02 04:16:40;;;;;;;11.30;8.63;;;15.30;99.90;;;;;;4994050;28;20269;-68
2021/08/02 04:19:07;;;;;;;9.93;8.75;;;15.50;99.90;;;;;;5007667;28;20201;-68
2021/08/02 04:21:34;;;;;;;7.72;6.25;;;15.60;99.90;;;;;;5005822;28;20200;-67
2021/08/02 04:24:03;;;;;;;9.55;7.50;;;15.80;99.90;;;;;;4983545;28;20438;-65
2021/08/02 04:26:30;;;;;;;17.73;8.03;;;16.00;99.90;;;;;;4983096;28;20224;-66
2021/08/02 04:28:57;;;;;;;10.00;8.93;;;16.10;99.90;;;;;;4986878;28;20489;-67
2021/08/02 04:31:27;;;;;;;11.32;7.65;;;16.20;99.90;;;;;;4986874;28;20199;-69
2021/08/02 04:33:55;;;;;;;8.88;6.40;;;16.20;99.90;;;;;;5000527;28;20198;-67
2021/08/02 04:36:23;;;;;;;7.25;6.55;;;16.20;99.90;;;;;;5000135;28;20246;-68
2021/08/02 04:38:50;;;;;;;11.90;6.70;;;16.30;99.90;;;;;;5000056;28;20207;-67
2021/08/02 04:41:18;;;;;;;7.40;6.70;;;16.30;99.90;;;;;;4999756;28;20220;-66
2021/08/02 04:43:45;;;;;;;7.23;6.70;;;16.30;99.90;;;;;;5015044;28;20480;-68
2021/08/02 04:46:12;;;;;;;7.57;6.87;;;16.40;99.90;;;;;;4995848;28;20481;-68
2021/08/02 04:48:40;;;;;;;9.43;7.03;;;16.40;99.90;;;;;;4995219;28;20417;-68
2021/08/02 04:51:06;;;;;;;7.00;6.40;;;16.40;99.90;;;;;;4983003;28;20254;-68
2021/08/02 04:53:34;;;;;;;9.95;6.43;;;16.40;99.90;;;;;;4986882;28;20937;-66
2021/08/02 04:56:01;;;;;;;11.10;7.00;;;16.60;99.90;;;;;;4999875;28;20208;-66
2021/08/02 04:58:28;;;;;;;7.63;6.93;;;16.70;99.90;;;;;;4987614;28;20437;-69
2021/08/02 05:00:55;;;;;;;6.63;6.03;;;16.80;99.90;;;;;;4999222;28;20437;-69
2021/08/02 05:03:22;;;;;;;7.70;6.70;;;16.90;99.90;;;;;;4999123;28;20828;-68
2021/08/02 05:05:54;;;;;;;6.97;6.37;;;16.90;99.90;;;;;;4999487;28;20662;-68
2021/08/02 05:08:21;;;;;;;7.90;7.30;;;16.90;99.90;;;;;;4998779;28;20437;-68
2021/08/02 05:10:49;;;;;;;8.57;7.43;;;17.00;99.90;;;;;;4998066;28;20622;-69
2021/08/02 05:13:16;;;;;;;7.23;6.53;;;17.10;99.90;;;;;;4999019;28;20442;-68
2021/08/02 05:15:43;;;;;;;7.47;6.77;;;17.00;99.90;;;;;;4999078;28;20788;-68
2021/08/02 05:18:11;;;;;;;7.10;6.53;;;17.00;99.90;;;;;;4999151;28;20435;-67
2021/08/02 05:20:38;;;;;;;8.90;8.10;;;17.00;99.90;;;;;;4998532;28;20444;-67
2021/08/02 05:23:05;;;;;;;10.80;6.77;;;16.90;99.90;;;;;;5009719;28;20882;-67
2021/08/02 05:25:32;;;;;;;10.93;6.47;;;17.00;99.90;;;;;;4998665;28;20486;-69
2021/08/02 05:27:59;;;;;;;12.20;5.63;;;16.90;99.90;;;;;;5030494;28;20438;-70
2021/08/02 05:30:26;;;;;;;6.80;6.30;;;17.10;99.90;;;;;;5014583;28;20475;-68
2021/08/02 05:32:53;;;;;;;7.80;6.40;;;17.20;99.90;;;;;;4991578;28;20454;-66
2021/08/02 05:35:22;;;;;;;8.83;6.70;;;17.30;99.90;;;;;;4998675;28;20651;-69
2021/08/02 05:37:49;;;;;;;6.43;5.90;;;17.30;99.90;;;;;;4999108;28;20444;-69
2021/08/02 05:40:16;;;;;;;7.40;6.70;;;17.40;99.90;;;;;;4994344;28;20511;-68
2021/08/02 05:42:43;;;;;;;6.00;5.50;;;17.50;99.90;;;;;;4993064;28;20443;-67
2021/08/02 05:45:10;;;;;;;7.83;7.17;;;17.60;99.90;;;;;;4998261;28;20475;-67
2021/08/02 05:47:39;;;;;;;6.70;5.87;;;17.70;99.90;;;;;;4997431;28;21095;-66
2021/08/02 05:50:07;;;;;;;6.73;6.13;;;17.60;99.90;;;;;;4998474;28;20413;-68
2021/08/02 05:52:34;;;;;;;8.37;6.47;;;17.90;99.90;;;;;;5006535;28;20404;-67
2021/08/02 05:55:02;;;;;;;7.30;6.70;;;18.00;99.90;;;;;;4998199;28;20449;-68
2021/08/02 05:57:29;;;;;;;7.23;6.50;;;18.20;99.90;;;;;;5007089;28;20435;-68
2021/08/02 05:59:56;;;;;;;7.93;6.20;;;18.40;99.90;;;;;;4998278;28;20409;-69
2021/08/02 06:02:23;;;;;;;9.27;6.10;;;18.70;99.90;;;;;;5004591;28;20485;-69
2021/08/02 06:04:54;;;;;;;8.30;6.60;;;18.90;99.90;;;;;;4996498;28;20534;-70
2021/08/02 06:07:22;;;;;;;6.17;5.63;;;19.40;99.90;;;;;;4996135;28;20428;-68
2021/08/02 06:09:52;;;;;;;5.70;5.20;;;19.60;99.90;;;;;;4984814;28;20410;-69
2021/08/02 06:12:20;;;;;;;6.53;5.70;;;19.80;99.90;;;;;;4993036;28;20444;-67
2021/08/02 06:14:48;;;;;;;7.33;5.90;;;19.90;99.90;;;;;;4997760;28;20434;-70
2021/08/02 06:17:16;;;;;;;6.10;5.60;;;19.70;99.90;;;;;;4996967;28;20417;-69
2021/08/02 06:19:53;;;;;;;6.57;6.07;;;19.70;99.90;;;;;;4981876;28;20784;-69
2021/08/02 06:22:23;;;;;;;8.03;6.07;;;19.50;99.90;;;;;;4996320;28;20433;-66
2021/08/02 06:24:50;;;;;;;6.10;5.63;;;19.40;99.90;;;;;;4997510;28;20738;-68
2021/08/02 06:27:17;;;;;;;6.73;6.10;;;19.40;99.90;;;;;;5002491;28;20433;-70
2021/08/02 06:29:44;;;;;;;6.10;5.60;;;19.40;99.90;;;;;;4997374;28;20558;-71
2021/08/02 06:32:12;;;;;;;6.17;5.67;;;19.20;99.90;;;;;;4997711;28;20424;-67
2021/08/02 06:34:39;;;;;;;10.03;6.53;;;19.20;99.90;;;;;;4996851;28;20425;-68
2021/08/02 06:37:06;;;;;;;5.87;5.17;;;19.30;99.90;;;;;;4998417;28;20421;-70
2021/08/02 06:39:34;;;;;;;6.30;5.70;;;19.30;99.90;;;;;;4997312;28;20467;-70
2021/08/02 06:42:01;;;;;;;5.27;4.87;;;19.40;99.90;;;;;;4997930;28;20410;-70
2021/08/02 06:44:30;;;;;;;5.70;5.27;;;19.60;99.90;;;;;;4996985;28;20421;-70
2021/08/02 06:46:57;;;;;;;6.47;5.97;;;19.80;99.90;;;;;;5005774;28;20555;-68
2021/08/02 06:49:24;;;;;;;7.23;6.43;;;20.20;99.90;;;;;;4990577;28;20506;-68
2021/08/02 06:51:51;;;;;;;7.07;6.37;;;20.40;99.90;;;;;;4992273;28;20787;-69
2021/08/02 06:54:19;;;;;;;5.50;5.00;;;20.50;99.90;;;;;;4978227;28;20447;-66
2021/08/02 06:56:46;;;;;;;6.63;5.50;;;21.00;99.90;;;;;;5008613;28;20449;-68
2021/08/02 06:59:13;;;;;;;6.37;5.77;;;21.60;99.90;;;;;;4988181;28;20747;-68
2021/08/02 07:01:40;;;;;;;5.60;5.03;;;22.20;99.90;;;;;;5006774;28;20700;-70
2021/08/02 07:04:08;;;;;;;5.90;5.50;;;22.80;99.90;;;;;;5005734;28;20557;-68
2021/08/02 07:06:40;;;;;;;5.60;4.97;;;22.50;99.90;;;;;;4989266;28;20451;-67
2021/08/02 07:09:08;;;;;;;6.07;5.50;;;22.20;99.90;;;;;;4994600;28;20417;-67
2021/08/02 07:11:35;;;;;;;5.90;5.30;;;22.00;99.90;;;;;;4987529;28;20470;-67
2021/08/02 07:14:03;;;;;;;5.67;5.17;;;22.40;99.90;;;;;;4986217;28;20418;-70
2021/08/02 07:16:30;;;;;;;5.20;4.80;;;22.80;99.90;;;;;;4996893;28;20416;-68
2021/08/02 07:18:57;;;;;;;8.20;5.90;;;23.10;99.90;;;;;;4997330;28;20896;-69
2021/08/02 07:21:25;;;;;;;5.53;5.03;;;23.50;99.90;;;;;;5011885;28;20728;-68
2021/08/02 07:23:52;;;;;;;5.50;5.00;;;23.20;99.90;;;;;;4985726;28;20524;-68
2021/08/02 07:26:19;;;;;;;5.80;5.40;;;22.90;99.90;;;;;;4978751;28;20517;-68
2021/08/02 07:28:46;;;;;;;5.97;5.47;;;22.30;99.90;;;;;;4980487;28;20417;-70
2021/08/02 07:31:15;;;;;;;5.83;5.37;;;21.90;99.90;;;;;;4994591;28;20637;-69
2021/08/02 07:33:42;;;;;;;7.10;5.70;;;21.10;99.90;;;;;;4984167;28;20727;-68
2021/08/02 07:36:09;;;;;;;6.30;5.73;;;20.90;99.90;;;;;;4994489;28;20419;-67
2021/08/02 07:38:36;;;;;;;6.20;5.80;;;21.00;99.90;;;;;;5007042;28;20780;-66
2021/08/02 07:41:04;;;;;;;6.00;5.50;;;22.20;99.90;;;;;;4997208;28;20483;-65
2021/08/02 07:43:31;;;;;;;6.50;6.10;;;22.70;99.90;;;;;;4997187;28;20419;-68
2021/08/02 07:45:58;;;;;;;7.13;6.63;;;22.90;99.90;;;;;;5000878;28;20495;-68
2021/08/02 07:48:25;;;;;;;6.30;5.83;;;23.40;99.90;;;;;;5004260;28;20410;-65
2021/08/02 07:50:52;;;;;;;6.60;6.10;;;23.30;99.90;;;;;;5000981;28;20432;-68
2021/08/02 07:53:19;;;;;;;7.93;7.13;;;23.90;99.90;;;;;;4997162;28;20457;-69
2021/08/02 07:55:46;;;;;;;6.70;6.30;;;24.00;99.90;;;;;;5007899;28;20409;-67
2021/08/02 07:58:14;;;;;;;5.93;5.53;;;24.60;99.90;;;;;;4996138;28;20456;-66
2021/08/02 08:00:41;;;;;;;5.20;4.80;;;25.30;99.90;;;;;;4994974;28;20473;-65
2021/08/02 08:03:08;;;;;;;5.30;5.00;;;24.70;99.90;;;;;;4994772;28;20809;-67
2021/08/02 08:05:36;;;;;;;5.73;5.43;;;25.90;99.90;;;;;;5005620;28;20480;-65
2021/08/02 08:08:03;;;;;;;6.13;5.73;;;27.00;99.70;;;;;;5000729;28;20414;-66
2021/08/02 08:10:32;;;;;;;5.57;5.27;;;27.40;97.90;;;;;;4999963;28;20441;-67
2021/08/02 08:12:59;;;;;;;5.00;4.80;;;28.00;96.60;;;;;;4988902;28;20438;-65
2021/08/02 08:15:26;;;;;;;6.33;5.93;;;28.10;95.20;;;;;;4995913;28;20443;-66
2021/08/02 08:17:54;;;;;;;6.93;6.53;;;28.20;95.30;;;;;;5000971;28;20436;-68
2021/08/02 08:20:23;;;;;;;6.53;6.23;;;28.10;95.40;;;;;;5000988;28;20440;-66
2021/08/02 08:22:51;;;;;;;6.27;5.97;;;27.20;96.60;;;;;;5001392;28;20602;-66
2021/08/02 08:25:18;;;;;;;6.13;5.73;;;26.00;98.00;;;;;;5003033;28;20768;-65
2021/08/02 08:27:45;;;;;;;6.00;5.70;;;27.20;96.00;;;;;;4998633;28;20545;-67
2021/08/02 08:30:13;;;;;;;6.40;6.10;;;27.80;94.90;;;;;;5000116;28;20728;-64
2021/08/02 08:32:40;;;;;;;5.90;5.60;;;26.80;96.00;;;;;;4999901;28;20511;-69
2021/08/02 08:35:10;;;;;;;6.30;6.00;;;26.70;96.00;;;;;;5003508;28;20603;-66
2021/08/02 08:37:38;;;;;;;5.23;4.93;;;27.60;94.90;;;;;;5007270;28;20452;-64
2021/08/02 08:40:07;;;;;;;6.67;6.37;;;29.10;92.70;;;;;;4999781;28;20430;-65
2021/08/02 08:42:35;;;;;;;7.00;6.70;;;31.60;89.40;;;;;;4997869;28;20518;-67
2021/08/02 08:45:03;;;;;;;6.40;6.20;;;31.30;84.90;;;;;;4999787;28;20447;-67
2021/08/02 08:47:32;;;;;;;6.00;5.80;;;29.40;87.80;;;;;;4999584;28;20553;-64
2021/08/02 08:49:59;;;;;;;6.23;5.93;;;27.10;92.10;;;;;;4994836;28;20622;-69
2021/08/02 08:52:26;;;;;;;6.90;6.60;;;25.70;94.80;;;;;;4999382;28;20410;-66
2021/08/02 08:54:54;;;;;;;7.27;6.87;;;24.50;97.30;;;;;;4999180;28;20447;-66
2021/08/02 08:57:21;;;;;;;6.27;5.97;;;25.40;97.50;;;;;;5004329;28;20439;-66
2021/08/02 08:59:50;;;;;;;6.23;5.93;;;25.20;97.80;;;;;;4998871;28;20673;-65
2021/08/02 09:02:24;;;;;;;7.63;7.23;;;24.50;98.50;;;;;;4999607;28;20454;-67
2021/08/02 09:04:57;;;;;;;6.87;6.47;;;23.70;99.90;;;;;;4996743;28;20442;-65
2021/08/02 09:07:35;;;;;;;6.40;5.90;;;23.30;99.90;;;;;;4997608;28;20496;-66
2021/08/02 09:10:14;;;;;;;6.33;6.00;;;23.40;99.90;;;;;;5000860;28;20432;-65
2021/08/02 09:12:58;;;;;;;6.00;5.60;;;23.00;99.90;;;;;;4995342;28;20799;-66
2021/08/02 09:15:38;;;;;;;5.47;5.17;;;22.60;99.90;;;;;;4998695;28;20447;-68
2021/08/02 09:18:14;;;;;;;5.67;5.37;;;22.40;99.90;;;;;;5032275;28;20597;-66
2021/08/02 09:20:41;;;;;;;5.93;5.43;;;22.50;99.90;;;;;;4999008;28;21005;-67
2021/08/02 09:23:12;;;;;;;6.20;5.80;;;22.90;99.90;;;;;;4983638;28;20668;-66
2021/08/02 09:25:54;;;;;;;5.83;5.53;;;23.10;99.90;;;;;;4992758;28;20736;-67
2021/08/02 09:28:23;;;;;;;7.23;6.53;;;23.30;99.90;;;;;;5005110;28;20446;-65
2021/08/02 09:30:54;;;;;;;6.90;6.50;;;23.90;99.90;;;;;;5000054;28;20468;-65
2021/08/02 09:33:22;;;;;;;5.77;5.37;;;24.50;99.90;;;;;;4998628;28;20434;-64
2021/08/02 09:35:51;;;;;;;8.00;7.60;;;25.10;99.90;;;;;;4998511;28;20440;-64
2021/08/02 09:38:20;;;;;;;10.90;6.13;;;25.30;99.90;;;;;;4982324;28;20734;-64
2021/08/02 09:40:53;;;;;;;7.47;6.83;;;25.60;99.90;;;;;;4995981;28;20415;-67
2021/08/02 09:43:27;;;;;;;6.13;5.83;;;25.20;99.90;;;;;;4982115;28;20678;-68
2021/08/02 09:46:15;;;;;;;6.87;6.47;;;24.80;99.90;;;;;;4980124;28;20442;-65
2021/08/02 09:48:44;;;;;;;5.70;5.40;;;24.90;99.90;;;;;;4985208;28;20462;-65
2021/08/02 09:51:21;;;;;;;5.60;5.20;;;24.90;99.90;;;;;;4983088;28;20479;-65
2021/08/02 09:53:54;;;;;;;5.10;4.90;;;25.20;99.50;;;;;;4984832;28;20503;-65
2021/08/02 09:56:23;;;;;;;5.53;5.13;;;25.20;99.10;;;;;;4981590;28;20459;-64
2021/08/02 09:59:07;;;;;;;6.20;5.80;;;24.90;99.00;;;;;;4980997;28;20427;-64
2021/08/02 10:01:35;;;;;;;5.67;5.40;;;24.20;99.90;;;;;;4978711;28;20638;-65
2021/08/02 10:04:04;;;;;;;5.27;4.97;;;23.50;99.90;;;;;;4996223;28;20738;-67
2021/08/02 10:06:33;;;;;;;5.50;5.10;;;23.00;99.90;;;;;;4982575;28;20479;-66
2021/08/02 10:09:00;;;;;;;5.50;5.20;;;23.00;99.90;;;;;;4985908;28;20440;-65
2021/08/02 10:11:28;;;;;;;4.77;4.57;;;23.40;99.90;;;;;;4995620;28;20415;-66
2021/08/02 10:13:56;;;;;;;5.70;5.40;;;23.50;99.90;;;;;;4981738;28;20736;-65
2021/08/02 10:16:28;;;;;;;6.10;5.70;;;23.60;99.90;;;;;;4986623;28;20436;-66
2021/08/02 10:19:04;;;;;;;5.37;5.07;;;23.60;99.90;;;;;;4984909;28;20437;-65
2021/08/02 10:21:43;;;;;;;6.63;5.40;;;23.50;99.90;;;;;;4986530;28;20411;-64
2021/08/02 10:24:15;;;;;;;6.10;5.70;;;23.70;99.90;;;;;;4981694;28;20646;-65
2021/08/02 10:26:56;;;;;;;6.30;5.90;;;24.20;99.90;;;;;;4978235;28;20450;-65
2021/08/02 10:29:24;;;;;;;5.00;4.80;;;24.70;99.90;;;;;;4982530;28;20487;-65
2021/08/02 10:31:53;;;;;;;6.20;5.80;;;25.00;99.90;;;;;;4980475;28;20466;-62
2021/08/02 10:34:24;;;;;;;5.53;5.27;;;25.10;99.90;;;;;;4983002;28;20418;-63
2021/08/02 10:37:06;;;;;;;5.63;5.33;;;25.00;99.90;;;;;;4985225;28;20828;-65
2021/08/02 10:39:35;;;;;;;5.50;5.20;;;24.70;99.90;;;;;;4984500;28;20774;-66
2021/08/02 10:42:09;;;;;;;6.57;6.13;;;24.80;99.90;;;;;;4981437;28;20789;-64
2021/08/02 10:44:58;;;;;;;6.00;5.70;;;24.90;99.90;;;;;;4986598;28;20405;-64
2021/08/02 10:47:42;;;;;;;5.50;5.20;;;25.20;99.50;;;;;;4991866;28;20454;-65
2021/08/02 10:50:11;;;;;;;6.13;5.73;;;24.90;99.10;;;;;;4996493;28;20423;-65
2021/08/02 10:52:38;;;;;;;6.20;5.70;;;25.00;99.60;;;;;;4993641;28;20750;-66
2021/08/02 10:55:14;;;;;;;6.10;5.80;;;25.10;99.70;;;;;;4978950;28;20442;-65
2021/08/02 10:57:41;;;;;;;5.43;5.13;;;24.90;99.70;;;;;;4981900;28;20499;-65
2021/08/02 11:00:20;;;;;;;6.13;5.83;;;24.90;99.20;;;;;;4985206;28;20435;-65
2021/08/02 11:02:52;;;;;;;6.50;6.10;;;24.80;99.20;;;;;;4993945;28;20495;-64
2021/08/02 11:05:22;;;;;;;5.40;5.10;;;24.80;99.40;;;;;;4993850;28;20443;-65
2021/08/02 11:07:49;;;;;;;5.60;5.30;;;24.40;99.90;;;;;;4996652;28;20676;-65
2021/08/02 11:10:17;;;;;;;6.37;5.87;;;24.30;99.90;;;;;;4994453;28;20448;-64
2021/08/02 11:12:46;;;;;;;5.70;5.30;;;24.20;99.90;;;;;;4995891;28;20411;-63
2021/08/02 11:15:14;;;;;;;5.50;5.20;;;24.40;99.90;;;;;;4996424;28;20538;-66
2021/08/02 11:17:52;;;;;;;5.90;5.60;;;24.60;99.50;;;;;;4990356;28;20410;-64
2021/08/02 11:20:21;;;;;;;7.53;6.40;;;25.10;99.20;;;;;;5003708;28;20447;-64
2021/08/02 11:22:52;;;;;;;5.43;5.23;;;25.50;99.10;;;;;;5003435;28;20454;-63
2021/08/02 11:25:29;;;;;;;6.10;5.80;;;25.70;98.60;;;;;;5003578;28;20461;-63
2021/08/02 11:27:59;;;;;;;5.70;5.40;;;25.80;97.50;;;;;;5017868;28;20503;-64
2021/08/02 11:30:28;;;;;;;5.93;5.53;;;25.70;97.80;;;;;;5003379;28;20446;-65
2021/08/02 11:32:56;;;;;;;5.70;5.40;;;25.60;97.30;;;;;;5004925;28;20422;-63
2021/08/02 11:35:35;;;;;;;5.93;5.63;;;25.60;98.10;;;;;;5002645;28;20499;-64
2021/08/02 11:38:04;;;;;;;5.80;5.40;;;25.70;98.40;;;;;;5000019;28;20417;-66
2021/08/02 11:40:37;;;;;;;4.60;4.40;;;25.80;96.50;;;;;;5004253;28;20443;-65
2021/08/02 11:43:05;;;;;;;6.13;5.67;;;25.50;96.50;;;;;;5004864;28;20466;-64
2021/08/02 11:45:33;;;;;;;5.37;5.07;;;25.60;96.40;;;;;;5036833;28;20786;-65
2021/08/02 11:48:02;;;;;;;5.77;5.47;;;25.50;95.00;;;;;;5018870;28;20493;-65
2021/08/02 11:50:30;;;;;;;5.43;5.20;;;25.20;95.40;;;;;;5003255;28;20466;-64
2021/08/02 11:53:00;;;;;;;5.43;5.13;;;25.00;96.70;;;;;;5002095;28;20626;-65
2021/08/02 11:55:28;;;;;;;8.33;5.37;;;24.60;97.40;;;;;;5003567;28;20474;-65
2021/08/02 11:57:59;;;;;;;5.50;5.20;;;23.90;99.20;;;;;;5003514;28;20414;-64
2021/08/02 12:00:27;;;;;;;5.90;5.50;;;23.00;99.90;;;;;;5002985;28;20437;-64
2021/08/02 12:03:05;;;;;;;5.77;5.47;;;22.50;99.90;;;;;;5001648;28;20508;-64
2021/08/02 12:05:33;;;;;;;5.83;5.47;;;22.30;99.90;;;;;;5003619;28;20489;-64
2021/08/02 12:08:13;;;;;;;5.57;5.17;;;22.30;99.90;;;;;;5000802;28;20460;-65
2021/08/02 12:10:44;;;;;;;6.30;5.93;;;22.20;99.90;;;;;;5000467;28;20419;-64
2021/08/02 12:13:13;;;;;;;4.97;4.60;;;22.10;99.90;;;;;;5002769;28;20512;-64
2021/08/02 12:16:00;;;;;;;4.60;4.20;;;21.80;99.90;;;;;;5002182;28;20415;-66
2021/08/02 12:18:29;;;;;;;3.73;3.53;;;20.80;99.90;;;;;;4999040;28;20737;-66
2021/08/02 12:21:23;;;;;;;3.80;3.60;;;20.00;99.90;;;;;;5006653;28;20491;-67
2021/08/02 12:23:50;;;;;;;6.23;4.33;;;20.00;99.90;;;;;;5003034;28;20966;-68
2021/08/02 12:26:21;;;;;;;4.43;4.10;;;20.30;99.90;;;;;;5007749;28;20439;-66
2021/08/02 12:28:49;;;;;;;3.80;3.60;;;20.80;99.90;;;;;;5002652;28;20462;-66
2021/08/02 12:31:18;;;;;;;4.90;4.60;;;20.90;99.90;;;;;;4999573;28;20411;-66
2021/08/02 12:33:48;;;;;;;6.37;4.67;;;21.20;99.90;;;;;;5003608;28;20451;-65
2021/08/02 12:36:15;;;;;;;4.30;4.00;;;21.40;99.90;;;;;;4992694;28;20412;-64
2021/08/02 12:38:44;;;;;;;5.73;4.10;;;21.30;99.90;;;;;;4999406;28;20473;-66
2021/08/02 12:41:12;;;;;;;7.77;5.53;;;21.00;99.90;;;;;;4998918;28;20485;-67
2021/08/02 12:43:42;;;;;;;5.07;4.67;;;20.30;99.90;;;;;;4998413;28;20416;-68
2021/08/02 12:46:12;;;;;;;5.03;4.63;;;20.00;99.90;;;;;;4991252;28;20471;-66
2021/08/02 12:48:56;;;;;;;4.70;4.40;;;19.90;99.90;;;;;;5009556;28;20402;-69
2021/08/02 12:51:23;;;;;;;4.23;3.97;;;20.10;99.90;;;;;;4996186;28;20423;-67
2021/08/02 12:53:51;;;;;;;4.80;4.40;;;20.20;99.90;;;;;;5002453;28;20666;-68
2021/08/02 12:56:18;;;;;;;4.30;4.00;;;20.20;99.90;;;;;;4999272;28;20406;-66
2021/08/02 12:58:45;;;;;;;4.40;4.10;;;20.40;99.90;;;;;;4999719;28;20440;-68
2021/08/02 13:01:12;;;;;;;4.23;3.93;;;20.50;99.90;;;;;;4999403;28;20494;-65